CheckWX is a tool to help pilots better visualize weather data.  It is not intended as a substitute for an official pre-flight weather briefing.

14:36:21 UTC

ENML METAR
Molde Airport
Årø, Norway
Current

16 mins ago

ENML 281420Z 25011KT 9999 SCT049 BKN062 12/04 Q1033
Observed
May-28 @ 14:20 UTC
Wind
  • 250° at 11 KTS
Visibility
10,000+ meters
Flight Rules
VFR
Cloud Levels
  • Scattered at 4,900' AGL
  • Broken at 6,200' AGL
Temperature
12°C / 54°F
Dewpoint
C / 39°F
Humidity
58%
Altimeter
30.5" Hg
Pressure
1032.92 hPa
Previous

46 mins ago

ENML 281350Z 26012KT 9999 SCT047 BKN058 11/04 Q1033
Observed
May-28 @ 13:50 UTC
Wind
  • 260° at 12 KTS
Visibility
10,000+ meters
Flight Rules
VFR
Cloud Levels
  • Scattered at 4,700' AGL
  • Broken at 5,800' AGL
Temperature
11°C / 52°F
Dewpoint
C / 39°F
Humidity
62%
Altimeter
30.5" Hg
Pressure
1032.92 hPa
Previous

1 hour ago

ENML 281320Z 25010KT 9999 SCT047 BKN058 11/04 Q1033
Observed
May-28 @ 13:20 UTC
Wind
  • 250° at 10 KTS
Visibility
10,000+ meters
Flight Rules
VFR
Cloud Levels
  • Scattered at 4,700' AGL
  • Broken at 5,800' AGL
Temperature
11°C / 52°F
Dewpoint
C / 39°F
Humidity
62%
Altimeter
30.5" Hg
Pressure
1032.92 hPa